Time;durP1;ratioP1;P1;durP2;ratioP2;P2;SDS_P1;SDS_P2;PMS_P1;PMS_P2;Temp;Humidity;BMP_temperature;BMP_pressure;BME280_temperature;BME280_humidity;BME280_pressure;Samples;Min_cycle;Max_cycle;Signal;HPM_P1;HPM_P2
2021/01/10 00:00:17;;;;;;;5.82;1.80;;;22.20;15.90;;;;;;5110938;28;20114;-64
2021/01/10 00:02:44;;;;;;;8.18;1.80;;;22.10;16.10;;;;;;5107967;28;20529;-63
2021/01/10 00:05:36;;;;;;;8.20;1.60;;;22.00;16.30;;;;;;5112038;28;20075;-60
2021/01/10 00:08:03;;;;;;;9.43;2.15;;;21.90;16.10;;;;;;5092455;28;20072;-61
2021/01/10 00:10:31;;;;;;;7.50;2.22;;;21.80;16.10;;;;;;5093574;28;20280;-62
2021/01/10 00:13:02;;;;;;;5.50;1.50;;;21.80;16.30;;;;;;5104955;28;20063;-62
2021/01/10 00:15:29;;;;;;;3.88;1.52;;;21.70;16.30;;;;;;5089275;28;20252;-59
2021/01/10 00:17:56;;;;;;;9.68;2.17;;;21.60;16.60;;;;;;5079279;28;20134;-60
2021/01/10 00:20:22;;;;;;;10.50;1.90;;;21.50;16.70;;;;;;5088368;28;20077;-61
2021/01/10 00:22:53;;;;;;;9.57;2.30;;;21.40;17.00;;;;;;5072804;28;20134;-60
2021/01/10 00:25:20;;;;;;;5.85;2.08;;;21.30;17.20;;;;;;5107270;28;20087;-61
2021/01/10 00:27:47;;;;;;;7.22;1.80;;;21.20;17.40;;;;;;5105390;28;20133;-62
2021/01/10 00:30:17;;;;;;;8.73;1.85;;;21.10;17.50;;;;;;5101539;28;20096;-61
2021/01/10 00:32:56;;;;;;;11.30;3.40;;;21.00;17.60;;;;;;5111021;28;20099;-61
2021/01/10 00:35:25;;;;;;;13.48;3.08;;;21.00;17.80;;;;;;5093049;28;20096;-62
2021/01/10 00:37:53;;;;;;;11.60;3.08;;;20.80;17.90;;;;;;5108953;28;20078;-61
2021/01/10 00:40:23;;;;;;;14.05;3.47;;;20.70;18.10;;;;;;5105396;28;20072;-61
2021/01/10 00:42:49;;;;;;;9.93;3.50;;;20.60;18.00;;;;;;5103952;28;20068;-61
2021/01/10 00:45:18;;;;;;;10.98;3.75;;;20.50;18.00;;;;;;5108866;28;20096;-61
2021/01/10 00:47:45;;;;;;;21.45;4.28;;;20.40;18.30;;;;;;5106119;28;20482;-62
2021/01/10 00:50:12;;;;;;;16.05;4.63;;;20.20;18.10;;;;;;5103860;28;20076;-60
2021/01/10 00:52:39;;;;;;;16.67;4.07;;;20.20;18.30;;;;;;5103477;28;20068;-61
2021/01/10 00:55:07;;;;;;;17.90;5.65;;;20.00;18.60;;;;;;5106728;28;20132;-61
2021/01/10 00:57:34;;;;;;;28.65;14.60;;;19.80;18.90;;;;;;5105843;28;20076;-62
2021/01/10 01:00:00;;;;;;;23.30;7.20;;;19.80;19.20;;;;;;5104528;28;20170;-62
2021/01/10 01:02:27;;;;;;;22.55;5.15;;;19.60;19.40;;;;;;5096170;28;20076;-62
2021/01/10 01:04:53;;;;;;;;;;;19.50;19.60;;;;;;5100052;28;20068;-61
2021/01/10 01:07:20;;;;;;;14.75;7.47;;;19.40;20.20;;;;;;5101962;28;20305;-62
2021/01/10 01:09:46;;;;;;;;;;;19.30;20.50;;;;;;5105079;28;20068;-60
2021/01/10 01:12:12;;;;;;;15.35;4.65;;;19.10;20.70;;;;;;5108245;28;20277;-61
2021/01/10 01:14:38;;;;;;;;;;;19.00;20.90;;;;;;5089093;28;20080;-61
2021/01/10 01:17:07;;;;;;;26.05;8.13;;;18.90;20.90;;;;;;5108169;28;20017;-60
2021/01/10 01:19:34;;;;;;;28.42;8.27;;;18.70;21.20;;;;;;5077385;28;20109;-61
2021/01/10 01:22:00;;;;;;;22.48;7.35;;;18.60;21.50;;;;;;5094572;28;20548;-59
2021/01/10 01:24:27;;;;;;;;;;;18.50;21.80;;;;;;5101630;28;20092;-59
2021/01/10 01:26:54;;;;;;;25.23;6.53;;;18.30;21.70;;;;;;5086465;28;20014;-61
2021/01/10 01:29:20;;;;;;;24.23;7.68;;;18.20;21.70;;;;;;5074657;28;20140;-61
2021/01/10 01:31:46;;;;;;;;;;;18.10;22.20;;;;;;5103127;28;20079;-63
2021/01/10 01:34:13;;;;;;;23.23;10.80;;;18.00;22.70;;;;;;5108566;28;20029;-61
2021/01/10 01:36:40;;;;;;;;;;;17.90;22.20;;;;;;5108195;28;20080;-62
2021/01/10 01:39:06;;;;;;;;;;;17.80;22.50;;;;;;5098415;28;19984;-59
2021/01/10 01:41:37;;;;;;;36.83;16.20;;;17.70;23.10;;;;;;5089191;28;19978;-61
2021/01/10 01:44:06;;;;;;;30.42;12.80;;;17.70;23.70;;;;;;5083036;28;20075;-60
2021/01/10 01:46:37;;;;;;;24.85;9.32;;;17.60;23.50;;;;;;5087312;28;20100;-60
2021/01/10 01:49:11;;;;;;;32.30;11.18;;;17.50;22.50;;;;;;5103904;28;20416;-60
2021/01/10 01:51:40;;;;;;;30.90;11.02;;;17.50;22.80;;;;;;5110558;27;20095;-59
2021/01/10 01:54:07;;;;;;;27.13;10.10;;;17.50;23.00;;;;;;5101731;28;20108;-61
2021/01/10 01:56:35;;;;;;;26.67;12.45;;;17.40;23.10;;;;;;5102361;28;20072;-61
2021/01/10 01:59:08;;;;;;;34.42;11.20;;;17.30;23.40;;;;;;5104639;28;20137;-61
2021/01/10 02:01:38;;;;;;;24.55;10.88;;;17.20;23.70;;;;;;5070043;28;20084;-61
2021/01/10 02:04:14;;;;;;;28.17;8.55;;;17.10;23.70;;;;;;5101106;28;20389;-62
2021/01/10 02:07:07;;;;;;;24.50;9.52;;;17.00;23.40;;;;;;5106001;28;20436;-59
2021/01/10 02:09:42;;;;;;;43.55;19.20;;;17.00;23.80;;;;;;5074273;28;20480;-61
2021/01/10 02:12:11;;;;;;;41.92;16.02;;;16.90;23.80;;;;;;5098776;28;20119;-60
2021/01/10 02:14:50;;;;;;;35.08;11.98;;;16.80;23.40;;;;;;5102633;28;20072;-62
2021/01/10 02:17:18;;;;;;;22.42;5.82;;;16.80;23.60;;;;;;5103685;28;20072;-59
2021/01/10 02:19:57;;;;;;;20.15;7.50;;;16.80;23.50;;;;;;5099559;28;20196;-59
2021/01/10 02:22:31;;;;;;;26.20;7.60;;;16.70;24.50;;;;;;5104135;28;20083;-61
2021/01/10 02:24:58;;;;;;;19.52;6.55;;;16.70;25.10;;;;;;5092573;28;20155;-60
2021/01/10 02:27:25;;;;;;;20.92;5.68;;;16.60;24.80;;;;;;5105462;28;20151;-60
2021/01/10 02:29:53;;;;;;;22.60;7.13;;;16.40;24.70;;;;;;5108267;28;20068;-61
2021/01/10 02:32:22;;;;;;;32.05;12.75;;;16.40;25.10;;;;;;5104866;28;20078;-59
2021/01/10 02:34:50;;;;;;;51.40;23.02;;;16.20;25.40;;;;;;5102993;28;20111;-62
2021/01/10 02:37:53;;;;;;;40.13;18.95;;;16.10;25.70;;;;;;5102445;28;20080;-62
2021/01/10 02:40:24;;;;;;;26.65;10.52;;;16.00;25.30;;;;;;5082070;28;20555;-60
2021/01/10 02:43:15;;;;;;;19.42;6.43;;;15.90;25.80;;;;;;5084488;28;20478;-60
2021/01/10 02:45:45;;;;;;;12.88;4.43;;;16.00;25.10;;;;;;5098883;28;20076;-61
2021/01/10 02:48:12;;;;;;;18.60;4.55;;;16.10;23.80;;;;;;5101373;28;20123;-61
2021/01/10 02:50:39;;;;;;;11.25;4.32;;;16.10;24.80;;;;;;5102362;28;20072;-64
2021/01/10 02:53:06;;;;;;;13.77;5.18;;;16.10;26.00;;;;;;5100665;28;20077;-61
2021/01/10 02:55:33;;;;;;;22.27;5.68;;;16.10;25.70;;;;;;5101606;28;20076;-58
2021/01/10 02:58:04;;;;;;;21.20;6.18;;;16.00;25.50;;;;;;5086748;28;20177;-63
2021/01/10 03:00:32;;;;;;;22.25;7.25;;;15.90;25.80;;;;;;5086432;28;20080;-62
2021/01/10 03:03:00;;;;;;;30.10;8.68;;;15.80;25.90;;;;;;5100053;28;20080;-62
2021/01/10 03:05:29;;;;;;;23.83;8.65;;;15.80;25.80;;;;;;5097193;28;20517;-63
2021/01/10 03:07:56;;;;;;;38.25;11.63;;;15.70;26.20;;;;;;5097089;28;20169;-63
2021/01/10 03:10:23;;;;;;;38.47;14.07;;;15.70;26.20;;;;;;5101372;28;20076;-63
2021/01/10 03:12:50;;;;;;;27.52;12.25;;;15.70;26.60;;;;;;5087019;28;20528;-60
2021/01/10 03:15:17;;;;;;;29.38;8.57;;;15.60;27.20;;;;;;5107521;28;20091;-62
2021/01/10 03:17:46;;;;;;;;;;;15.60;27.50;;;;;;5107830;28;20079;-65
2021/01/10 03:20:15;;;;;;;28.77;7.05;;;15.60;28.10;;;;;;5093356;28;19984;-62
2021/01/10 03:22:44;;;;;;;29.52;6.93;;;15.50;28.60;;;;;;5105725;28;20493;-62
2021/01/10 03:25:12;;;;;;;24.50;7.50;;;15.40;28.70;;;;;;5107456;28;20076;-63
2021/01/10 03:27:39;;;;;;;36.03;11.45;;;15.30;28.50;;;;;;5106101;28;20470;-64
2021/01/10 03:30:07;;;;;;;42.13;11.98;;;15.40;28.30;;;;;;5090370;28;20080;-63
2021/01/10 03:32:34;;;;;;;24.95;10.10;;;15.30;28.10;;;;;;5111781;28;20409;-66
2021/01/10 03:35:01;;;;;;;26.00;9.98;;;15.20;28.10;;;;;;5111061;28;20068;-62
2021/01/10 03:37:28;;;;;;;44.97;9.88;;;15.10;28.50;;;;;;5107856;28;20509;-62
2021/01/10 03:39:54;;;;;;;;;;;15.00;29.00;;;;;;5108146;28;20238;-62
2021/01/10 03:42:21;;;;;;;36.88;9.25;;;14.90;29.00;;;;;;5104195;28;20071;-64
2021/01/10 03:44:48;;;;;;;;;;;14.80;29.40;;;;;;5085326;28;20072;-60
2021/01/10 03:47:15;;;;;;;29.83;12.70;;;14.70;29.40;;;;;;5106143;28;19964;-64
2021/01/10 03:49:41;;;;;;;30.90;11.05;;;14.60;29.60;;;;;;5109140;28;20072;-63
2021/01/10 03:52:08;;;;;;;29.27;11.10;;;14.40;29.60;;;;;;5111079;28;20547;-63
2021/01/10 03:54:35;;;;;;;42.22;10.77;;;14.50;29.60;;;;;;5107271;28;20120;-62
2021/01/10 03:57:03;;;;;;;26.90;9.15;;;14.50;29.80;;;;;;5079081;28;20080;-62
2021/01/10 03:59:29;;;;;;;43.03;9.55;;;14.50;29.60;;;;;;5087627;28;20123;-63
2021/01/10 04:01:57;;;;;;;30.85;8.95;;;14.40;29.90;;;;;;5101584;28;20072;-64
2021/01/10 04:04:23;;;;;;;27.55;8.55;;;14.40;30.60;;;;;;5106753;28;20064;-64
2021/01/10 04:06:50;;;;;;;31.67;8.63;;;14.30;30.30;;;;;;5084096;28;20528;-62
2021/01/10 04:09:16;;;;;;;;;;;14.30;30.00;;;;;;5088040;28;20079;-63
2021/01/10 04:11:43;;;;;;;24.10;7.65;;;14.20;29.90;;;;;;5086969;28;20042;-63
2021/01/10 04:14:09;;;;;;;;;;;14.20;30.00;;;;;;5091519;28;20193;-62
2021/01/10 04:16:36;;;;;;;23.13;6.90;;;14.10;30.60;;;;;;5111488;27;20430;-63
2021/01/10 04:19:02;;;;;;;;;;;14.10;30.40;;;;;;5110232;28;20187;-63
2021/01/10 04:21:36;;;;;;;113.07;42.17;;;14.00;30.60;;;;;;5105954;28;20420;-63
2021/01/10 04:24:04;;;;;;;63.17;24.98;;;13.90;30.40;;;;;;5102982;28;20157;-63
2021/01/10 04:26:37;;;;;;;43.08;16.02;;;13.80;31.00;;;;;;5099360;28;20072;-62
2021/01/10 04:29:05;;;;;;;37.88;13.15;;;13.70;30.90;;;;;;5108024;28;20072;-63
2021/01/10 04:31:31;;;;;;;36.58;12.55;;;13.70;30.70;;;;;;5109020;28;20152;-66
2021/01/10 04:33:57;;;;;;;;;;;13.80;31.10;;;;;;5111411;28;20128;-63
2021/01/10 04:36:28;;;;;;;36.38;10.68;;;13.70;31.80;;;;;;5110911;27;20002;-63
2021/01/10 04:38:56;;;;;;;30.98;10.15;;;13.70;31.30;;;;;;5085414;28;20133;-64
2021/01/10 04:41:24;;;;;;;26.05;10.23;;;13.70;31.00;;;;;;5107755;28;20543;-64
2021/01/10 04:43:51;;;;;;;37.55;10.95;;;13.70;31.10;;;;;;5090544;28;20078;-62
2021/01/10 04:46:18;;;;;;;36.00;11.68;;;13.60;31.80;;;;;;5102406;28;20497;-63
2021/01/10 04:48:46;;;;;;;35.70;12.00;;;13.50;31.60;;;;;;5090990;28;20478;-63
2021/01/10 04:51:16;;;;;;;33.60;14.50;;;13.50;32.10;;;;;;5085640;28;20073;-63
2021/01/10 04:53:46;;;;;;;51.47;16.27;;;13.40;31.60;;;;;;5081302;28;20080;-63
2021/01/10 04:56:13;;;;;;;49.08;18.58;;;13.40;31.70;;;;;;5104923;28;20075;-64
2021/01/10 04:58:43;;;;;;;55.15;19.02;;;13.40;32.30;;;;;;5092458;28;20436;-64
2021/01/10 05:01:36;;;;;;;55.63;17.33;;;13.30;33.20;;;;;;5076717;28;20098;-63
2021/01/10 05:04:04;;;;;;;54.45;17.85;;;13.20;32.40;;;;;;5107547;28;20112;-64
2021/01/10 05:06:34;;;;;;;44.00;15.73;;;13.30;32.50;;;;;;5097032;28;20092;-62
2021/01/10 05:09:03;;;;;;;44.00;13.20;;;13.30;32.60;;;;;;5123664;27;20072;-62
2021/01/10 05:11:30;;;;;;;38.83;14.25;;;13.30;31.70;;;;;;5103404;28;20073;-63
2021/01/10 05:13:56;;;;;;;;;;;13.20;32.20;;;;;;5107242;28;20069;-62
2021/01/10 05:16:23;;;;;;;45.15;15.77;;;13.20;32.00;;;;;;5077525;28;21440;-63
2021/01/10 05:18:54;;;;;;;53.28;15.95;;;13.10;32.00;;;;;;5105160;28;20448;-63
2021/01/10 05:21:21;;;;;;;46.78;16.92;;;13.10;32.00;;;;;;5084164;28;20084;-63
2021/01/10 05:23:52;;;;;;;51.05;17.83;;;13.10;32.00;;;;;;5103375;28;20155;-63
2021/01/10 05:26:20;;;;;;;61.05;20.45;;;13.20;32.30;;;;;;5107215;28;20087;-61
2021/01/10 05:28:49;;;;;;;65.28;20.38;;;13.10;32.20;;;;;;5085108;28;20096;-62
2021/01/10 05:31:42;;;;;;;58.92;20.90;;;13.10;32.60;;;;;;5080882;28;20087;-64
2021/01/10 05:34:16;;;;;;;61.30;20.40;;;13.10;32.50;;;;;;5095936;28;20200;-62
2021/01/10 05:36:43;;;;;;;53.95;19.42;;;13.10;33.50;;;;;;5085962;28;20594;-63
2021/01/10 05:39:28;;;;;;;48.22;17.67;;;13.10;33.70;;;;;;5107102;28;20552;-63
2021/01/10 05:42:05;;;;;;;48.95;20.45;;;13.00;33.40;;;;;;5089757;28;20083;-62
2021/01/10 05:44:52;;;;;;;;;;;13.00;33.00;;;;;;5104506;28;20078;-63
2021/01/10 05:47:20;;;;;;;66.30;19.55;;;12.90;33.30;;;;;;5087621;28;20055;-63
2021/01/10 05:49:54;;;;;;;58.80;21.23;;;12.90;33.40;;;;;;5098148;28;20559;-63
2021/01/10 05:52:22;;;;;;;63.58;22.60;;;12.90;33.20;;;;;;5103718;28;20478;-62
2021/01/10 05:54:54;;;;;;;53.10;21.63;;;12.80;33.20;;;;;;5080939;28;20077;-62
2021/01/10 05:57:28;;;;;;;55.00;19.45;;;12.80;33.60;;;;;;5087651;28;20085;-61
2021/01/10 05:59:56;;;;;;;55.65;18.42;;;12.80;33.50;;;;;;5101115;28;20092;-62
2021/01/10 06:02:34;;;;;;;57.65;17.27;;;12.70;33.90;;;;;;5102668;28;20068;-61
2021/01/10 06:05:14;;;;;;;54.53;19.00;;;12.70;34.10;;;;;;5102751;28;20075;-62
2021/01/10 06:07:42;;;;;;;49.85;17.25;;;12.60;33.10;;;;;;5103591;28;20068;-63
2021/01/10 06:10:10;;;;;;;67.00;18.55;;;12.60;34.00;;;;;;5105579;28;20435;-63
2021/01/10 06:12:37;;;;;;;60.30;17.67;;;12.50;34.10;;;;;;5081484;28;20087;-63
2021/01/10 06:15:10;;;;;;;55.50;16.83;;;12.50;33.50;;;;;;5089820;28;20129;-62
2021/01/10 06:17:48;;;;;;;63.25;16.92;;;12.50;33.90;;;;;;5102273;28;20576;-63
2021/01/10 06:20:31;;;;;;;61.60;16.67;;;12.40;34.20;;;;;;5087950;28;20096;-63
2021/01/10 06:23:03;;;;;;;60.58;15.65;;;12.40;35.10;;;;;;5080780;28;20077;-63
2021/01/10 06:25:38;;;;;;;63.55;16.83;;;12.30;34.50;;;;;;5086271;28;20073;-63
2021/01/10 06:28:12;;;;;;;60.53;15.88;;;12.20;34.90;;;;;;5119877;27;20106;-62
2021/01/10 06:30:54;;;;;;;46.97;15.75;;;12.10;34.30;;;;;;5083870;28;20077;-62
2021/01/10 06:33:44;;;;;;;61.38;15.10;;;12.10;34.30;;;;;;5102079;28;20472;-62
2021/01/10 06:36:14;;;;;;;49.90;14.95;;;12.10;34.10;;;;;;5101060;28;20598;-61
2021/01/10 06:38:40;;;;;;;45.13;15.68;;;11.90;34.50;;;;;;5098842;28;20097;-63
2021/01/10 06:41:15;;;;;;;;;;;11.90;34.60;;;;;;5084471;28;20133;-62
2021/01/10 06:43:49;;;;;;;64.95;18.38;;;11.80;34.90;;;;;;5097061;28;19956;-63
2021/01/10 06:46:16;;;;;;;69.05;18.77;;;11.80;34.30;;;;;;5098745;28;20159;-62
2021/01/10 06:48:43;;;;;;;119.90;45.97;;;11.80;33.90;;;;;;5100590;28;20555;-63
2021/01/10 06:51:11;;;;;;;168.65;75.57;;;11.70;34.20;;;;;;5100571;28;20083;-62
2021/01/10 06:53:39;;;;;;;143.40;55.50;;;11.80;35.30;;;;;;5086347;28;20163;-63
2021/01/10 06:56:06;;;;;;;131.52;46.78;;;11.80;35.20;;;;;;5084675;28;20076;-63
2021/01/10 06:58:33;;;;;;;106.00;32.83;;;11.80;35.30;;;;;;5102863;28;20137;-62
2021/01/10 07:01:00;;;;;;;102.85;32.13;;;11.80;35.70;;;;;;5085324;28;20516;-62
2021/01/10 07:03:28;;;;;;;103.15;31.52;;;11.80;35.10;;;;;;5099952;28;20425;-62
2021/01/10 07:06:06;;;;;;;90.03;27.50;;;11.80;35.30;;;;;;5104478;28;20080;-62
2021/01/10 07:08:40;;;;;;;79.10;25.67;;;11.80;35.70;;;;;;5111234;28;20060;-63
2021/01/10 07:11:23;;;;;;;81.60;25.27;;;11.70;35.40;;;;;;5085908;28;20559;-64
2021/01/10 07:14:12;;;;;;;84.00;24.77;;;11.60;35.70;;;;;;5105529;28;20072;-64
2021/01/10 07:16:44;;;;;;;79.45;25.27;;;11.60;35.70;;;;;;5105879;28;20068;-63
2021/01/10 07:19:11;;;;;;;91.68;30.77;;;11.50;34.50;;;;;;5092276;28;20111;-63
2021/01/10 07:21:39;;;;;;;93.82;29.10;;;11.50;34.50;;;;;;5107224;28;20090;-64
2021/01/10 07:24:24;;;;;;;114.55;31.70;;;11.50;34.30;;;;;;5111208;28;20080;-63
2021/01/10 07:26:59;;;;;;;90.18;30.95;;;11.50;33.80;;;;;;5085527;28;20412;-63
2021/01/10 07:29:29;;;;;;;105.40;29.15;;;11.50;33.70;;;;;;5106379;28;20180;-64
2021/01/10 07:32:19;;;;;;;91.93;28.20;;;11.60;33.40;;;;;;5088219;28;20146;-63
2021/01/10 07:34:46;;;;;;;90.50;26.05;;;11.60;33.10;;;;;;5063007;28;20136;-63
2021/01/10 07:37:28;;;;;;;78.95;25.73;;;11.60;33.50;;;;;;5069743;28;20073;-61
2021/01/10 07:39:59;;;;;;;79.25;21.17;;;11.60;33.60;;;;;;5083247;28;20124;-62
2021/01/10 07:42:28;;;;;;;67.35;18.95;;;11.60;32.60;;;;;;5083162;28;20065;-65
2021/01/10 07:44:58;;;;;;;67.90;18.77;;;11.60;31.00;;;;;;5083210;28;20069;-62
2021/01/10 07:47:33;;;;;;;62.25;17.73;;;11.70;30.80;;;;;;5086135;28;20180;-62
2021/01/10 07:50:11;;;;;;;47.97;14.70;;;11.70;30.20;;;;;;5089228;28;20131;-63
2021/01/10 07:52:49;;;;;;;48.03;12.75;;;11.80;29.70;;;;;;5064641;28;20858;-63
2021/01/10 07:55:18;;;;;;;26.95;9.43;;;11.90;29.10;;;;;;5065020;28;20541;-63
2021/01/10 07:58:01;;;;;;;35.63;8.80;;;11.90;29.10;;;;;;5065676;28;20084;-63
2021/01/10 08:00:32;;;;;;;35.38;9.00;;;12.00;29.20;;;;;;5085864;28;20099;-63
2021/01/10 08:03:09;;;;;;;35.05;9.00;;;12.00;29.70;;;;;;5084883;28;20069;-63
2021/01/10 08:05:43;;;;;;;30.15;8.32;;;12.00;29.10;;;;;;5085196;28;20092;-63
2021/01/10 08:08:15;;;;;;;35.85;8.05;;;12.00;27.90;;;;;;5082669;28;20072;-63
2021/01/10 08:10:50;;;;;;;44.60;10.05;;;12.10;27.30;;;;;;5067706;28;20080;-62
2021/01/10 08:13:37;;;;;;;39.97;10.65;;;12.10;26.90;;;;;;5085879;28;20609;-63
2021/01/10 08:16:04;;;;;;;;;;;12.10;27.10;;;;;;5085515;28;20080;-63
2021/01/10 08:18:39;;;;;;;42.72;9.93;;;12.10;27.30;;;;;;5068364;28;19972;-62
2021/01/10 08:21:10;;;;;;;36.78;9.75;;;12.20;27.70;;;;;;5068469;28;20171;-62
2021/01/10 08:23:38;;;;;;;40.30;10.18;;;12.10;28.60;;;;;;5068738;28;20521;-63
2021/01/10 08:26:08;;;;;;;35.42;9.18;;;12.10;28.00;;;;;;5086130;28;20442;-63
2021/01/10 08:28:38;;;;;;;38.80;9.77;;;12.10;28.40;;;;;;5085577;28;20077;-63
2021/01/10 08:31:07;;;;;;;52.92;11.77;;;12.00;28.70;;;;;;5086819;28;20103;-63
2021/01/10 08:33:33;;;;;;;71.25;11.35;;;12.00;28.60;;;;;;5098911;28;20119;-63
2021/01/10 08:36:30;;;;;;;40.55;12.10;;;11.90;28.30;;;;;;5106413;28;20089;-63
2021/01/10 08:38:59;;;;;;;41.22;11.43;;;11.90;28.60;;;;;;5085975;28;20180;-63
2021/01/10 08:41:33;;;;;;;34.78;11.13;;;11.90;28.90;;;;;;5103890;28;20084;-65
2021/01/10 08:44:01;;;;;;;44.60;12.13;;;11.90;29.50;;;;;;5108726;28;20148;-63
2021/01/10 08:46:34;;;;;;;41.63;11.65;;;11.80;29.40;;;;;;5106100;28;20080;-62
2021/01/10 08:49:01;;;;;;;38.50;10.48;;;11.70;29.70;;;;;;5086106;28;20069;-62
2021/01/10 08:51:48;;;;;;;44.60;11.88;;;11.60;28.80;;;;;;5104262;28;20080;-62
2021/01/10 08:54:16;;;;;;;;;;;11.60;30.00;;;;;;5095173;28;21382;-63
2021/01/10 08:56:43;;;;;;;44.38;11.52;;;11.50;30.40;;;;;;5089606;28;20040;-62
2021/01/10 08:59:11;;;;;;;42.95;10.90;;;11.40;30.90;;;;;;5102143;28;20108;-63
2021/01/10 09:01:39;;;;;;;35.42;10.60;;;11.40;30.60;;;;;;5088597;28;20102;-63
2021/01/10 09:04:10;;;;;;;49.15;10.90;;;11.30;30.20;;;;;;5103252;28;20076;-62
2021/01/10 09:06:47;;;;;;;42.10;12.65;;;11.20;30.00;;;;;;5103152;28;20067;-63
2021/01/10 09:09:33;;;;;;;35.75;10.75;;;11.20;30.70;;;;;;5107457;28;20607;-65
2021/01/10 09:12:11;;;;;;;37.53;10.43;;;11.20;30.70;;;;;;5076171;28;20083;-63
2021/01/10 09:15:01;;;;;;;42.92;10.93;;;11.20;30.90;;;;;;5106062;28;20100;-63
2021/01/10 09:17:55;;;;;;;43.22;11.95;;;11.20;31.40;;;;;;5103129;28;20073;-63
2021/01/10 09:20:49;;;;;;;52.35;11.40;;;11.20;31.40;;;;;;5088343;28;20096;-63
2021/01/10 09:23:18;;;;;;;43.83;11.50;;;11.20;31.50;;;;;;5103402;28;20440;-63
2021/01/10 09:25:45;;;;;;;51.60;11.88;;;11.10;31.70;;;;;;5084748;28;20085;-63
2021/01/10 09:28:15;;;;;;;35.03;11.90;;;11.10;32.30;;;;;;5087483;28;20442;-63
2021/01/10 09:30:43;;;;;;;45.63;11.55;;;11.00;31.90;;;;;;5100608;28;20068;-63
2021/01/10 09:33:11;;;;;;;47.55;10.25;;;11.10;31.90;;;;;;5099921;28;20576;-63
2021/01/10 09:35:43;;;;;;;43.78;11.07;;;11.00;32.20;;;;;;5106142;28;20084;-63
2021/01/10 09:38:12;;;;;;;38.75;11.25;;;11.00;31.00;;;;;;5103602;28;20065;-63
2021/01/10 09:40:59;;;;;;;47.35;11.77;;;11.00;30.90;;;;;;5105845;28;20508;-63
2021/01/10 09:44:07;;;;;;;41.72;12.95;;;10.90;31.20;;;;;;5103781;28;21614;-63
2021/01/10 09:46:34;;;;;;;63.30;12.90;;;10.90;31.00;;;;;;5085855;28;20080;-63
2021/01/10 09:49:19;;;;;;;44.50;12.05;;;10.90;31.00;;;;;;5086516;28;20145;-62
2021/01/10 09:51:55;;;;;;;44.53;12.30;;;10.90;31.90;;;;;;5106454;28;20076;-63
2021/01/10 09:54:23;;;;;;;48.55;13.20;;;10.90;32.30;;;;;;5100512;28;20470;-63
2021/01/10 09:56:53;;;;;;;41.25;11.90;;;10.90;32.40;;;;;;5100204;28;20076;-63
2021/01/10 09:59:41;;;;;;;38.53;14.52;;;10.90;32.00;;;;;;5106612;28;20092;-63
2021/01/10 10:02:16;;;;;;;43.33;14.90;;;10.90;32.10;;;;;;5091216;28;20138;-62
2021/01/10 10:04:47;;;;;;;45.30;13.80;;;10.80;31.70;;;;;;5106985;28;20519;-62
2021/01/10 10:07:29;;;;;;;52.60;16.30;;;10.80;31.40;;;;;;5107016;28;20517;-64
2021/01/10 10:09:56;;;;;;;49.30;13.10;;;10.80;31.80;;;;;;5105979;28;20080;-63
2021/01/10 10:12:24;;;;;;;47.35;12.60;;;10.80;31.80;;;;;;5106214;28;20198;-63
2021/01/10 10:14:59;;;;;;;39.97;11.60;;;10.90;32.10;;;;;;5099861;28;20176;-63
2021/01/10 10:17:31;;;;;;;41.88;10.90;;;10.90;31.90;;;;;;5110323;28;20079;-63
2021/01/10 10:19:59;;;;;;;40.08;10.80;;;10.90;32.20;;;;;;5106358;28;20096;-63
2021/01/10 10:22:33;;;;;;;37.05;10.55;;;10.90;32.30;;;;;;5101683;28;20080;-63
2021/01/10 10:25:01;;;;;;;34.95;10.05;;;10.80;32.60;;;;;;5094695;28;20591;-63
2021/01/10 10:27:29;;;;;;;32.97;10.95;;;10.80;32.40;;;;;;5084149;28;20443;-64
2021/01/10 10:29:56;;;;;;;36.80;10.48;;;10.80;32.50;;;;;;5105601;28;20108;-62
2021/01/10 10:32:23;;;;;;;36.47;11.00;;;10.80;32.90;;;;;;5101372;28;20076;-63
2021/01/10 10:34:53;;;;;;;32.42;11.20;;;10.80;33.10;;;;;;5106490;28;20505;-63
2021/01/10 10:37:21;;;;;;;28.33;10.13;;;10.70;33.50;;;;;;5106858;28;20068;-63
2021/01/10 10:39:48;;;;;;;37.47;10.35;;;10.70;33.80;;;;;;5107318;28;20494;-63
2021/01/10 10:42:17;;;;;;;29.15;9.25;;;10.70;33.90;;;;;;5108901;28;20289;-62
2021/01/10 10:44:45;;;;;;;31.33;9.60;;;10.70;33.70;;;;;;5096850;28;20107;-62
2021/01/10 10:47:15;;;;;;;30.58;9.15;;;10.70;33.90;;;;;;5106511;28;20068;-62
2021/01/10 10:49:43;;;;;;;28.85;9.75;;;10.60;33.80;;;;;;5086853;28;20104;-62
2021/01/10 10:52:11;;;;;;;30.38;9.77;;;10.50;34.00;;;;;;5107107;28;20420;-63
2021/01/10 10:54:40;;;;;;;42.85;9.80;;;10.40;34.10;;;;;;5105875;28;20073;-62
2021/01/10 10:57:08;;;;;;;39.67;10.73;;;10.40;33.50;;;;;;5103439;28;20161;-61
2021/01/10 10:59:34;;;;;;;40.15;10.50;;;10.30;33.40;;;;;;5101901;28;20171;-63
2021/01/10 11:02:02;;;;;;;49.15;10.93;;;10.20;34.30;;;;;;5104408;28;20115;-63
2021/01/10 11:04:29;;;;;;;41.63;10.57;;;10.30;34.30;;;;;;5105897;28;20073;-63
2021/01/10 11:06:55;;;;;;;36.80;10.80;;;10.30;34.70;;;;;;5089919;28;20069;-62
2021/01/10 11:09:21;;;;;;;;;;;10.30;35.00;;;;;;5107665;28;20080;-63
2021/01/10 11:11:49;;;;;;;28.30;10.45;;;10.30;34.90;;;;;;5105455;28;19996;-62
2021/01/10 11:14:17;;;;;;;33.42;9.93;;;10.20;34.70;;;;;;5107315;28;20096;-62
2021/01/10 11:16:46;;;;;;;38.40;11.82;;;10.10;34.30;;;;;;5102413;28;20179;-61
2021/01/10 11:19:13;;;;;;;39.03;10.75;;;10.10;34.70;;;;;;5107678;28;20092;-62
2021/01/10 11:21:43;;;;;;;34.22;11.13;;;10.10;35.20;;;;;;5085210;28;20549;-62
2021/01/10 11:24:11;;;;;;;43.00;11.00;;;10.10;35.60;;;;;;5105817;28;20159;-62
2021/01/10 11:26:39;;;;;;;24.33;9.68;;;10.10;35.90;;;;;;5106265;28;20131;-62
2021/01/10 11:29:06;;;;;;;37.15;10.52;;;10.10;35.60;;;;;;5104413;28;20075;-63
2021/01/10 11:31:34;;;;;;;34.15;10.35;;;10.10;36.00;;;;;;5106354;28;20091;-62
2021/01/10 11:34:02;;;;;;;34.92;9.80;;;10.10;36.40;;;;;;5086318;28;20119;-61
2021/01/10 11:36:29;;;;;;;38.17;11.27;;;10.00;35.20;;;;;;5107048;28;20435;-62
2021/01/10 11:38:55;;;;;;;;;;;10.00;35.40;;;;;;5105423;28;20541;-62
2021/01/10 11:41:23;;;;;;;27.00;10.93;;;9.90;35.20;;;;;;5101582;28;19956;-62
2021/01/10 11:43:52;;;;;;;34.42;9.95;;;9.80;35.30;;;;;;5082113;28;20500;-62
2021/01/10 11:46:20;;;;;;;36.42;10.85;;;9.80;36.20;;;;;;5100133;28;20076;-62
2021/01/10 11:48:47;;;;;;;32.72;10.52;;;9.80;36.00;;;;;;5085490;28;20637;-61
2021/01/10 11:51:16;;;;;;;28.60;9.40;;;9.80;35.90;;;;;;5098844;28;20145;-62
2021/01/10 11:53:43;;;;;;;31.45;8.82;;;9.70;35.90;;;;;;5105267;28;20167;-62
2021/01/10 11:56:10;;;;;;;23.88;8.05;;;9.70;35.80;;;;;;5111522;28;20427;-63
2021/01/10 11:58:40;;;;;;;17.83;6.93;;;9.80;35.70;;;;;;5111325;28;20172;-62
2021/01/10 12:01:08;;;;;;;20.50;7.60;;;9.80;34.90;;;;;;5103543;28;20073;-61
2021/01/10 12:03:34;;;;;;;27.70;7.60;;;9.80;34.70;;;;;;5110250;28;20085;-61
2021/01/10 12:06:01;;;;;;;;;;;9.80;34.60;;;;;;5111706;28;20572;-62
2021/01/10 12:08:29;;;;;;;28.52;9.75;;;9.70;34.60;;;;;;5099315;28;19956;-62
2021/01/10 12:10:56;;;;;;;21.85;9.13;;;9.70;33.90;;;;;;5106997;28;20072;-62
2021/01/10 12:13:23;;;;;;;21.40;7.78;;;9.80;34.00;;;;;;5104503;28;20493;-62
2021/01/10 12:15:50;;;;;;;32.00;6.95;;;9.80;33.80;;;;;;5105758;28;20073;-62
2021/01/10 12:18:16;;;;;;;;;;;9.80;33.40;;;;;;5092562;28;20590;-60
2021/01/10 12:20:43;;;;;;;20.48;6.05;;;9.80;33.80;;;;;;5089641;28;19964;-62
2021/01/10 12:23:10;;;;;;;20.70;6.55;;;9.80;34.40;;;;;;5108226;28;20073;-62
2021/01/10 12:25:36;;;;;;;24.08;7.07;;;9.80;34.70;;;;;;5111540;28;20076;-62
2021/01/10 12:28:02;;;;;;;;;;;9.80;35.00;;;;;;5111621;28;20084;-63
2021/01/10 12:30:29;;;;;;;17.50;6.82;;;9.70;34.70;;;;;;5109346;28;20002;-62
2021/01/10 12:32:58;;;;;;;16.25;6.53;;;9.70;34.60;;;;;;5107984;27;20100;-63
2021/01/10 12:35:25;;;;;;;20.45;6.47;;;9.70;34.70;;;;;;5109798;28;20064;-62
2021/01/10 12:37:52;;;;;;;18.17;6.57;;;9.70;35.40;;;;;;5090558;28;20072;-62
2021/01/10 12:40:19;;;;;;;15.80;6.43;;;9.80;35.30;;;;;;5109145;28;20087;-62
2021/01/10 12:42:48;;;;;;;14.68;6.40;;;9.70;35.30;;;;;;5083981;28;20076;-61
2021/01/10 12:45:16;;;;;;;20.35;6.40;;;9.70;35.60;;;;;;5109077;28;20072;-61
2021/01/10 12:47:46;;;;;;;19.70;5.82;;;9.70;35.60;;;;;;5091691;28;20068;-62
2021/01/10 12:50:15;;;;;;;23.48;6.35;;;9.60;35.10;;;;;;5108570;28;20524;-62
2021/01/10 12:52:43;;;;;;;17.95;6.32;;;9.70;35.20;;;;;;5106239;28;20080;-61
2021/01/10 12:55:11;;;;;;;23.40;6.57;;;9.70;36.10;;;;;;5103873;28;20096;-61